Time;durP1;ratioP1;P1;durP2;ratioP2;P2;SDS_P1;SDS_P2;PMS_P1;PMS_P2;Temp;Humidity;BMP_temperature;BMP_pressure;BME280_temperature;BME280_humidity;BME280_pressure;Samples;Min_cycle;Max_cycle;Signal;HPM_P1;HPM_P2
2023/09/07 00:02:11;;;;;;;8.98;5.68;;;;;;;19.40;72.73;101700.25;5086631;28;20530;-61
2023/09/07 00:04:39;;;;;;;7.47;4.95;;;;;;;19.36;72.65;101694.34;5085269;28;20080;-61
2023/09/07 00:07:06;;;;;;;7.18;5.63;;;;;;;19.34;72.58;101696.28;5084927;28;20077;-61
2023/09/07 00:09:33;;;;;;;8.35;4.82;;;;;;;19.30;72.60;101697.47;5087540;28;20445;-61
2023/09/07 00:12:01;;;;;;;6.95;5.10;;;;;;;19.28;72.92;101696.75;5084721;28;20135;-62
2023/09/07 00:14:28;;;;;;;9.32;5.47;;;;;;;19.25;73.35;101693.47;5062642;28;20147;-61
2023/09/07 00:16:57;;;;;;;8.23;5.13;;;;;;;19.22;73.73;101700.75;5062758;28;20135;-62
2023/09/07 00:19:24;;;;;;;7.18;5.53;;;;;;;19.21;73.90;101701.72;5082726;28;20075;-62
2023/09/07 00:21:51;;;;;;;9.02;5.00;;;;;;;19.19;73.45;101703.69;5084998;28;20505;-61
2023/09/07 00:24:19;;;;;;;8.45;5.90;;;;;;;19.18;73.61;101701.97;5086598;28;20485;-61
2023/09/07 00:26:46;;;;;;;8.45;5.90;;;;;;;19.17;73.88;101702.06;5088514;28;20091;-63
2023/09/07 00:29:13;;;;;;;9.43;5.47;;;;;;;19.15;74.28;101706.69;5070889;28;20573;-61
2023/09/07 00:31:41;;;;;;;12.68;6.20;;;;;;;19.11;74.58;101700.75;5080411;28;20051;-62
2023/09/07 00:34:09;;;;;;;6.43;5.22;;;;;;;19.08;74.52;101695.63;5083206;28;20462;-62
2023/09/07 00:36:36;;;;;;;8.50;5.97;;;;;;;19.08;74.56;101698.31;5085997;28;20219;-62
2023/09/07 00:39:03;;;;;;;11.35;5.47;;;;;;;19.05;74.65;101697.69;5082431;28;20125;-62
2023/09/07 00:41:31;;;;;;;6.90;5.82;;;;;;;19.03;74.82;101696.97;5086399;28;20098;-63
2023/09/07 00:43:58;;;;;;;7.38;5.28;;;;;;;19.00;74.73;101695.38;5097645;28;20075;-63
2023/09/07 00:46:25;;;;;;;9.30;5.63;;;;;;;18.97;75.37;101698.31;5100089;28;20068;-63
2023/09/07 00:48:52;;;;;;;8.45;5.93;;;;;;;18.92;76.46;101696.00;5070940;28;20455;-60
2023/09/07 00:51:19;;;;;;;7.07;5.28;;;;;;;18.88;76.45;101696.34;5079035;28;20131;-59
2023/09/07 00:53:47;;;;;;;10.02;4.93;;;;;;;18.84;76.50;101701.06;5066295;28;20152;-61
2023/09/07 00:56:14;;;;;;;9.18;5.35;;;;;;;18.80;76.82;101701.41;5090017;28;20094;-61
2023/09/07 00:58:42;;;;;;;7.65;5.63;;;;;;;18.77;77.46;101697.16;5084817;28;20048;-62
2023/09/07 01:01:10;;;;;;;7.85;5.05;;;;;;;18.74;77.45;101693.88;5083789;28;20524;-62
2023/09/07 01:03:37;;;;;;;7.90;5.35;;;;;;;18.68;77.85;101690.66;5077426;28;20153;-60
2023/09/07 01:06:13;;;;;;;12.10;5.35;;;;;;;18.64;78.68;101696.34;5079922;28;20962;-62
2023/09/07 01:08:44;;;;;;;10.32;5.75;;;;;;;18.57;78.86;101687.97;5084544;28;20060;-62
2023/09/07 01:11:16;;;;;;;7.70;5.13;;;;;;;18.52;79.72;101691.97;5080170;28;20171;-62
2023/09/07 01:13:43;;;;;;;10.70;5.78;;;;;;;18.45;79.77;101689.75;5082635;28;20418;-62
2023/09/07 01:16:12;;;;;;;8.20;5.38;;;;;;;18.42;80.20;101687.31;5080192;28;20056;-62
2023/09/07 01:18:40;;;;;;;8.75;5.35;;;;;;;18.37;80.11;101689.50;5067598;28;20082;-62
2023/09/07 01:21:08;;;;;;;6.75;5.60;;;;;;;18.35;80.05;101686.06;5084779;28;20045;-62
2023/09/07 01:23:36;;;;;;;10.93;5.55;;;;;;;18.33;81.33;101690.69;5086960;28;20165;-60
2023/09/07 01:26:06;;;;;;;9.73;5.22;;;;;;;18.29;81.79;101691.03;5084676;28;20075;-61
2023/09/07 01:28:33;;;;;;;10.10;6.43;;;;;;;18.26;81.88;101683.25;5078186;28;20196;-61
2023/09/07 01:31:03;;;;;;;11.07;5.93;;;;;;;18.23;81.65;101687.81;5091968;28;20101;-62
2023/09/07 01:33:31;;;;;;;9.10;5.55;;;;;;;18.20;81.89;101682.75;5089456;28;20124;-65
2023/09/07 01:35:58;;;;;;;10.07;5.78;;;;;;;18.18;81.92;101684.66;5085065;28;20088;-62
2023/09/07 01:38:25;;;;;;;9.15;6.25;;;;;;;18.15;81.94;101684.06;5065434;28;20085;-62
2023/09/07 01:40:53;;;;;;;10.73;5.95;;;;;;;18.10;82.32;101680.84;5081334;28;20156;-60
2023/09/07 01:43:20;;;;;;;9.52;6.32;;;;;;;18.07;82.83;101687.28;5082020;28;20064;-63
2023/09/07 01:45:47;;;;;;;11.93;5.75;;;;;;;18.03;82.99;101677.81;5065297;28;20094;-62
2023/09/07 01:48:15;;;;;;;8.95;5.90;;;;;;;17.99;83.09;101683.47;5081116;28;20056;-62
2023/09/07 01:50:42;;;;;;;8.07;5.18;;;;;;;17.95;83.47;101694.34;5066268;28;20040;-62
2023/09/07 01:53:09;;;;;;;7.35;5.80;;;;;;;17.89;84.17;101681.47;5080465;28;20066;-59
2023/09/07 01:55:36;;;;;;;8.60;5.85;;;;;;;17.84;84.93;101680.13;5086987;28;20044;-62
2023/09/07 01:58:04;;;;;;;11.88;6.72;;;;;;;17.78;85.46;101681.41;5076973;28;20063;-60
2023/09/07 02:00:36;;;;;;;11.18;6.50;;;;;;;17.72;85.33;101681.81;5082111;28;20135;-62
2023/09/07 02:03:04;;;;;;;8.95;5.80;;;;;;;17.68;85.92;101686.50;5082163;28;20079;-62
2023/09/07 02:05:33;;;;;;;12.00;6.72;;;;;;;17.63;86.93;101687.81;5063942;28;20550;-61
2023/09/07 02:08:01;;;;;;;8.60;6.50;;;;;;;17.59;86.79;101689.00;5080453;28;20043;-62
2023/09/07 02:10:28;;;;;;;10.23;6.93;;;;;;;17.57;86.49;101688.25;5083532;28;20048;-63
2023/09/07 02:12:57;;;;;;;7.28;5.78;;;;;;;17.54;87.09;101680.47;5083617;28;20596;-62
2023/09/07 02:15:24;;;;;;;8.60;6.13;;;;;;;17.51;87.42;101678.03;5066853;28;20155;-63
2023/09/07 02:17:52;;;;;;;11.40;7.00;;;;;;;17.45;87.37;101685.50;5081254;28;20044;-61
2023/09/07 02:20:20;;;;;;;9.50;7.07;;;;;;;17.41;87.58;101683.16;5079962;28;20490;-61
2023/09/07 02:22:47;;;;;;;8.00;6.25;;;;;;;17.38;88.09;101681.59;5082347;28;20749;-61
2023/09/07 02:25:14;;;;;;;10.07;7.18;;;;;;;17.35;88.51;101684.44;5086352;28;20066;-61
2023/09/07 02:28:31;;;;;;;9.45;6.85;;;;;;;17.32;88.48;101679.34;5082826;28;20047;-62
2023/09/07 02:31:05;;;;;;;8.95;6.63;;;;;;;17.28;88.21;101685.84;5065681;28;20069;-62
2023/09/07 02:33:33;;;;;;;9.60;6.93;;;;;;;17.29;88.67;101684.00;5084796;28;20139;-61
2023/09/07 02:36:01;;;;;;;9.63;6.38;;;;;;;17.25;89.01;101678.09;5083660;28;20079;-60
2023/09/07 02:38:28;;;;;;;11.20;7.63;;;;;;;17.23;89.41;101673.81;5076169;28;20072;-63
2023/09/07 02:40:57;;;;;;;10.73;7.25;;;;;;;17.21;89.56;101681.91;5079318;28;20497;-62
2023/09/07 02:43:24;;;;;;;9.00;5.75;;;;;;;17.17;89.27;101678.59;5079518;28;20100;-63
2023/09/07 02:45:51;;;;;;;12.90;7.00;;;;;;;17.15;90.18;101677.84;5076494;28;20464;-62
2023/09/07 02:48:18;;;;;;;9.05;6.13;;;;;;;17.12;89.71;101690.53;5061380;28;20566;-63
2023/09/07 02:50:49;;;;;;;11.25;6.85;;;;;;;17.10;90.00;101684.47;5080881;28;20052;-63
2023/09/07 02:53:17;;;;;;;12.13;7.05;;;;;;;17.09;90.02;101683.59;5080545;28;20058;-64
2023/09/07 02:55:44;;;;;;;8.95;6.78;;;;;;;17.09;90.11;101680.94;5084875;28;20063;-63
2023/09/07 02:58:11;;;;;;;9.93;7.03;;;;;;;17.08;90.03;101681.06;5067751;28;20139;-62
2023/09/07 03:00:46;;;;;;;8.77;6.88;;;;;;;17.05;90.96;101682.13;5079169;28;20072;-62
2023/09/07 03:03:14;;;;;;;11.50;7.25;;;;;;;17.05;90.25;101687.44;5064651;28;20143;-64
2023/09/07 03:05:42;;;;;;;8.55;6.65;;;;;;;17.02;90.67;101682.34;5083437;28;20064;-62
2023/09/07 03:08:10;;;;;;;11.63;7.53;;;;;;;17.01;91.46;101685.09;5081877;28;20044;-64
2023/09/07 03:10:39;;;;;;;11.80;6.75;;;;;;;16.98;91.07;101691.50;5079247;28;20617;-62
2023/09/07 03:13:07;;;;;;;10.10;6.47;;;;;;;16.95;91.43;101681.06;5083903;28;20058;-63
2023/09/07 03:15:35;;;;;;;8.32;6.82;;;;;;;16.94;91.31;101690.00;5083566;28;20116;-63
2023/09/07 03:18:03;;;;;;;15.38;7.90;;;;;;;16.90;91.24;101685.84;5082764;28;20134;-62
2023/09/07 03:20:33;;;;;;;7.43;6.00;;;;;;;16.89;91.21;101681.50;5083550;28;20072;-64
2023/09/07 03:23:01;;;;;;;9.15;6.60;;;;;;;16.88;91.12;101687.75;5065707;28;20127;-62
2023/09/07 03:25:29;;;;;;;11.25;7.13;;;;;;;16.86;91.14;101687.00;5085049;28;20052;-63
2023/09/07 03:27:56;;;;;;;8.77;6.35;;;;;;;16.87;90.45;101686.03;5068842;28;20049;-62
2023/09/07 03:30:23;;;;;;;9.25;6.82;;;;;;;16.87;90.42;101688.69;5077537;28;20139;-63
2023/09/07 03:32:51;;;;;;;11.95;7.25;;;;;;;16.88;90.18;101690.41;5086819;28;20139;-61
2023/09/07 03:35:18;;;;;;;10.80;6.43;;;;;;;16.87;89.82;101694.03;5088001;28;20082;-62
2023/09/07 03:37:45;;;;;;;9.38;6.47;;;;;;;16.87;89.81;101691.38;5071433;28;20135;-64
2023/09/07 03:40:13;;;;;;;8.98;6.68;;;;;;;16.88;89.65;101693.06;5087124;28;20052;-62
2023/09/07 03:42:40;;;;;;;10.68;6.75;;;;;;;16.87;89.04;101686.03;5086624;28;20108;-63
2023/09/07 03:45:07;;;;;;;9.00;5.93;;;;;;;16.89;89.35;101692.13;5088127;28;20083;-63
2023/09/07 03:47:35;;;;;;;9.68;6.60;;;;;;;16.89;88.40;101690.31;5088278;28;20094;-64
2023/09/07 03:50:02;;;;;;;8.52;7.63;;;;;;;16.90;88.23;101691.16;5088347;28;20076;-62
2023/09/07 03:52:29;;;;;;;11.43;7.00;;;;;;;16.91;88.19;101700.84;5082591;28;20413;-63
2023/09/07 03:54:57;;;;;;;9.00;7.03;;;;;;;16.90;88.43;101699.16;5090252;28;20072;-63
2023/09/07 03:57:25;;;;;;;11.73;6.93;;;;;;;16.90;88.63;101689.34;5069759;28;20131;-63
2023/09/07 03:59:55;;;;;;;11.02;7.10;;;;;;;16.89;88.57;101698.28;5086247;28;20075;-64
2023/09/07 04:02:22;;;;;;;10.60;7.53;;;;;;;16.88;88.62;101696.56;5063814;28;20450;-65
2023/09/07 04:04:52;;;;;;;11.32;7.38;;;;;;;16.89;89.09;101700.09;5091666;28;20079;-62
2023/09/07 04:07:19;;;;;;;11.82;7.05;;;;;;;16.86;89.07;101703.81;5072496;28;20675;-63
2023/09/07 04:09:47;;;;;;;11.80;6.35;;;;;;;16.85;89.03;101699.47;5084016;28;20091;-62
2023/09/07 04:12:14;;;;;;;8.85;6.72;;;;;;;16.84;88.94;101694.22;5089948;28;20079;-62
2023/09/07 04:14:42;;;;;;;10.80;7.63;;;;;;;16.83;89.60;101704.00;5071340;28;20051;-64
2023/09/07 04:17:10;;;;;;;11.70;7.45;;;;;;;16.83;90.18;101696.03;5063980;28;20095;-63
2023/09/07 04:19:37;;;;;;;8.73;7.28;;;;;;;16.83;89.31;101704.00;5084807;28;20094;-62
2023/09/07 04:22:04;;;;;;;10.40;6.63;;;;;;;16.84;89.16;101707.53;5067249;28;20044;-62
2023/09/07 04:24:32;;;;;;;10.68;7.18;;;;;;;16.82;88.83;101704.13;5092944;28;20080;-63
2023/09/07 04:27:03;;;;;;;12.63;6.18;;;;;;;16.81;88.62;101711.25;5069781;28;20067;-63
2023/09/07 04:29:31;;;;;;;8.43;7.13;;;;;;;16.82;88.69;101712.09;5070006;28;20087;-63
2023/09/07 04:31:58;;;;;;;11.65;7.60;;;;;;;16.82;88.88;101714.78;5086879;28;20093;-63
2023/09/07 04:34:26;;;;;;;14.27;6.93;;;;;;;16.80;89.51;101714.03;5061366;28;20075;-63
2023/09/07 04:36:53;;;;;;;10.63;6.60;;;;;;;16.77;89.47;101709.75;5077020;28;20048;-62
2023/09/07 04:39:20;;;;;;;10.50;6.63;;;;;;;16.78;89.88;101716.78;5080543;28;20051;-63
2023/09/07 04:41:47;;;;;;;12.93;6.90;;;;;;;16.79;89.72;101718.47;5077785;28;20128;-63
2023/09/07 04:44:15;;;;;;;14.85;7.28;;;;;;;16.80;89.29;101717.53;5072429;28;20225;-63
2023/09/07 04:46:42;;;;;;;13.23;7.60;;;;;;;16.84;90.42;101721.69;5045551;28;20148;-63
2023/09/07 04:49:09;;;;;;;9.00;6.32;;;;;;;16.88;89.33;101719.66;5080179;28;20060;-64
2023/09/07 04:51:37;;;;;;;8.70;7.47;;;;;;;16.93;89.04;101720.19;5083068;28;20044;-63
2023/09/07 04:54:04;;;;;;;8.40;6.32;;;;;;;16.98;88.56;101717.25;5079022;28;20059;-63
2023/09/07 04:56:31;;;;;;;9.38;6.95;;;;;;;17.04;88.07;101715.00;5081881;28;20098;-64
2023/09/07 04:59:00;;;;;;;11.10;6.75;;;;;;;17.10;87.80;101722.56;5078713;28;20060;-62
2023/09/07 05:01:27;;;;;;;7.03;6.10;;;;;;;17.16;87.83;101710.66;5082249;28;20432;-62
2023/09/07 05:03:55;;;;;;;12.45;7.25;;;;;;;17.21;87.49;101714.69;5079122;28;20060;-64
2023/09/07 05:06:26;;;;;;;8.00;6.60;;;;;;;17.29;87.42;101718.63;5064164;28;20044;-62
2023/09/07 05:08:53;;;;;;;11.05;5.72;;;;;;;17.34;86.89;101722.69;5083929;28;20226;-62
2023/09/07 05:11:20;;;;;;;10.82;6.45;;;;;;;17.42;86.82;101720.31;5076370;28;20041;-63
2023/09/07 05:13:48;;;;;;;11.02;6.18;;;;;;;17.49;86.66;101722.56;5082845;28;20071;-62
2023/09/07 05:16:15;;;;;;;9.70;6.50;;;;;;;17.56;85.88;101722.03;5081232;28;20079;-63
2023/09/07 05:18:42;;;;;;;10.60;6.75;;;;;;;17.61;86.60;101717.22;5080485;28;20606;-61
2023/09/07 05:21:14;;;;;;;8.43;6.10;;;;;;;17.65;86.85;101721.38;5056152;28;20063;-63
2023/09/07 05:23:42;;;;;;;12.63;6.15;;;;;;;17.69;86.79;101725.50;5082137;28;20139;-60
2023/09/07 05:26:09;;;;;;;10.55;6.43;;;;;;;17.76;85.92;101727.75;5080335;28;20172;-62
2023/09/07 05:28:37;;;;;;;14.57;6.43;;;;;;;17.84;85.63;101728.06;5075351;28;20805;-62
2023/09/07 05:31:04;;;;;;;9.93;6.53;;;;;;;17.91;85.16;101729.31;5076377;28;20121;-63
2023/09/07 05:33:32;;;;;;;12.55;7.15;;;;;;;17.96;84.82;101729.81;5082065;28;20044;-62
2023/09/07 05:36:01;;;;;;;14.88;6.97;;;;;;;18.01;84.68;101729.50;5078532;28;20579;-64
2023/09/07 05:38:28;;;;;;;9.82;6.47;;;;;;;18.04;84.55;101731.94;5059919;28;20135;-60
2023/09/07 05:41:00;;;;;;;12.30;6.70;;;;;;;18.13;83.63;101726.78;5062792;28;20093;-63
2023/09/07 05:43:27;;;;;;;13.75;6.88;;;;;;;18.21;83.15;101731.56;5080560;28;20588;-61
2023/09/07 05:45:54;;;;;;;17.80;8.18;;;;;;;18.25;82.86;101732.19;5076475;28;20131;-60
2023/09/07 05:48:21;;;;;;;14.85;7.68;;;;;;;18.31;82.82;101734.41;5077049;28;20138;-60
2023/09/07 05:50:49;;;;;;;20.17;8.10;;;;;;;18.38;82.46;101735.66;5079413;28;20080;-60
2023/09/07 05:53:24;;;;;;;12.95;6.88;;;;;;;18.49;81.64;101738.38;5080988;28;20072;-60
2023/09/07 05:55:52;;;;;;;11.00;6.70;;;;;;;18.57;81.29;101738.66;5076083;28;20552;-61
2023/09/07 05:58:19;;;;;;;12.10;6.70;;;;;;;18.65;80.57;101740.75;5077296;28;20078;-61
2023/09/07 06:00:46;;;;;;;13.93;6.45;;;;;;;18.74;79.94;101745.41;5078549;28;20143;-62
2023/09/07 06:03:14;;;;;;;7.25;5.38;;;;;;;18.83;79.44;101743.88;5072383;28;20060;-62
2023/09/07 06:05:41;;;;;;;29.13;7.47;;;;;;;18.93;78.92;101745.72;5057770;28;20053;-62
2023/09/07 06:08:08;;;;;;;15.45;6.93;;;;;;;19.05;78.14;101743.94;5076874;28;20143;-58
2023/09/07 06:10:36;;;;;;;11.57;6.47;;;;;;;19.15;77.61;101746.75;5074011;28;20151;-61
2023/09/07 06:13:04;;;;;;;16.55;7.28;;;;;;;19.25;77.33;101746.88;5077411;28;20387;-62
2023/09/07 06:15:31;;;;;;;19.52;6.40;;;;;;;19.35;76.69;101748.69;5056674;28;20109;-61
2023/09/07 06:17:58;;;;;;;15.80;6.30;;;;;;;19.43;76.20;101748.94;5072622;28;20175;-62
2023/09/07 06:20:26;;;;;;;11.70;6.82;;;;;;;19.53;75.25;101745.56;5080174;28;20067;-59
2023/09/07 06:22:53;;;;;;;18.90;7.57;;;;;;;19.63;74.98;101752.78;5074135;28;20048;-62
2023/09/07 06:25:22;;;;;;;11.82;6.45;;;;;;;19.71;74.50;101755.66;5080147;28;20047;-61
2023/09/07 06:27:49;;;;;;;19.83;6.60;;;;;;;19.81;73.71;101750.41;5073851;28;20467;-58
2023/09/07 06:30:17;;;;;;;8.65;6.00;;;;;;;19.86;73.32;101755.44;5077761;28;20133;-61
2023/09/07 06:32:44;;;;;;;9.13;5.90;;;;;;;19.98;72.66;101755.28;5075252;28;20148;-62
2023/09/07 06:35:12;;;;;;;11.50;6.38;;;;;;;20.10;71.91;101757.94;5070706;28;20148;-60
2023/09/07 06:37:40;;;;;;;10.00;6.40;;;;;;;20.22;71.45;101757.78;5079623;28;20056;-53
2023/09/07 06:40:09;;;;;;;11.48;6.70;;;;;;;20.30;70.53;101757.16;5076130;28;20072;-54
2023/09/07 06:42:37;;;;;;;13.60;7.38;;;;;;;20.42;69.45;101763.31;5073371;28;20568;-54
2023/09/07 06:45:05;;;;;;;12.63;6.93;;;;;;;20.53;69.65;101762.44;5072641;28;20566;-54
2023/09/07 06:47:32;;;;;;;10.45;6.57;;;;;;;20.63;69.26;101763.41;5073321;28;20552;-51
2023/09/07 06:50:00;;;;;;;9.55;5.78;;;;;;;20.78;68.62;101763.94;5069431;28;20139;-52
2023/09/07 06:52:27;;;;;;;17.13;6.65;;;;;;;20.89;67.89;101763.88;5077955;28;20071;-54
2023/09/07 06:54:54;;;;;;;11.70;6.05;;;;;;;21.04;66.76;101764.41;5073157;28;20514;-55
2023/09/07 06:57:22;;;;;;;11.18;6.68;;;;;;;21.17;66.61;101771.28;5070735;28;20135;-51
2023/09/07 06:59:49;;;;;;;11.38;6.55;;;;;;;21.26;65.92;101771.47;5074421;28;20079;-50
2023/09/07 07:02:16;;;;;;;9.20;6.68;;;;;;;21.43;65.57;101765.50;5081079;28;20175;-51
2023/09/07 07:04:46;;;;;;;9.68;6.45;;;;;;;21.51;64.05;101764.84;5073239;28;20056;-51
2023/09/07 07:07:13;;;;;;;12.25;5.75;;;;;;;21.55;64.29;101775.16;5076616;28;20059;-54
2023/09/07 07:09:40;;;;;;;7.15;5.78;;;;;;;21.65;64.12;101768.00;5079627;28;20668;-54
2023/09/07 07:12:08;;;;;;;11.05;6.15;;;;;;;21.82;63.36;101769.22;5074735;28;20040;-55
2023/09/07 07:14:35;;;;;;;12.65;6.15;;;;;;;21.95;62.73;101771.66;5081547;28;20082;-53
2023/09/07 07:17:04;;;;;;;25.80;18.40;;;;;;;22.05;62.08;101771.69;5076499;28;20087;-51
2023/09/07 07:19:32;;;;;;;14.45;10.75;;;;;;;22.08;60.65;101772.25;5080204;28;20079;-54
2023/09/07 07:21:59;;;;;;;15.00;10.57;;;;;;;22.15;60.68;101764.53;5075257;28;20144;-54
2023/09/07 07:24:26;;;;;;;7.72;6.03;;;;;;;22.23;61.24;101768.22;5077302;28;20131;-51
2023/09/07 07:26:54;;;;;;;8.32;5.78;;;;;;;22.36;60.68;101767.13;5074152;28;20044;-54
2023/09/07 07:29:21;;;;;;;12.93;5.32;;;;;;;22.50;60.22;101777.44;5078142;28;20134;-55
2023/09/07 07:31:48;;;;;;;10.10;5.57;;;;;;;22.60;59.71;101777.44;5075829;28;20075;-53
2023/09/07 07:34:16;;;;;;;15.63;5.78;;;;;;;22.68;58.39;101778.44;5080691;28;20044;-53
2023/09/07 07:36:43;;;;;;;11.90;5.75;;;;;;;22.80;58.47;101781.00;5073274;28;20116;-59
2023/09/07 07:39:10;;;;;;;9.75;5.68;;;;;;;22.91;58.30;101776.34;5074404;28;20099;-52
2023/09/07 07:41:38;;;;;;;9.98;5.40;;;;;;;23.09;58.31;101784.50;5076721;28;20124;-56
2023/09/07 07:44:08;;;;;;;12.38;4.78;;;;;;;23.20;57.41;101780.84;5079792;28;20074;-53
2023/09/07 07:46:35;;;;;;;41.80;34.03;;;;;;;23.36;57.45;101785.59;5074924;28;20223;-55
2023/09/07 07:49:02;;;;;;;19.85;13.95;;;;;;;23.44;57.10;101783.03;5079290;28;20079;-53
2023/09/07 07:51:29;;;;;;;18.40;11.80;;;;;;;23.50;57.12;101786.00;5079622;28;20142;-54
2023/09/07 07:53:57;;;;;;;13.30;6.40;;;;;;;23.49;56.25;101792.34;5076845;28;20148;-52
2023/09/07 07:56:25;;;;;;;11.70;6.13;;;;;;;23.61;56.84;101789.50;5076388;28;20165;-51
2023/09/07 07:58:52;;;;;;;19.20;6.85;;;;;;;23.72;56.30;101783.94;5080317;28;20076;-56
2023/09/07 08:01:23;;;;;;;18.02;7.07;;;;;;;23.79;55.75;101777.00;5073716;28;20083;-52
2023/09/07 08:03:53;;;;;;;24.15;6.13;;;;;;;23.92;55.85;101784.72;5073790;28;20076;-52
2023/09/07 08:06:23;;;;;;;11.40;5.07;;;;;;;24.00;55.76;101784.78;5061019;28;20044;-52
2023/09/07 08:08:50;;;;;;;9.40;5.72;;;;;;;24.15;53.98;101777.09;5074709;28;20059;-51
2023/09/07 08:11:21;;;;;;;10.48;5.45;;;;;;;24.28;53.74;101784.81;5073660;28;20131;-51
2023/09/07 08:13:48;;;;;;;11.93;5.63;;;;;;;24.37;53.83;101781.22;5077031;28;20047;-55
2023/09/07 08:16:15;;;;;;;16.45;5.60;;;;;;;24.51;53.28;101791.47;5073842;28;20056;-54
2023/09/07 08:18:43;;;;;;;11.70;5.25;;;;;;;24.60;52.74;101790.53;5073678;28;20464;-52
2023/09/07 08:21:13;;;;;;;7.90;4.63;;;;;;;24.64;52.50;101789.25;5072709;28;20052;-54
2023/09/07 08:23:40;;;;;;;15.65;5.55;;;;;;;24.67;51.67;101791.59;5077496;28;20172;-53
2023/09/07 08:26:09;;;;;;;15.50;5.18;;;;;;;24.80;51.97;101793.06;5074442;28;20131;-54
2023/09/07 08:28:36;;;;;;;12.70;5.38;;;;;;;24.87;51.15;101791.47;5077076;28;20082;-54
2023/09/07 08:31:04;;;;;;;16.00;5.88;;;;;;;24.93;51.14;101796.22;5077873;28;20616;-55
2023/09/07 08:33:35;;;;;;;9.43;5.25;;;;;;;24.93;50.39;101796.22;5078389;28;20163;-52
2023/09/07 08:36:05;;;;;;;9.18;5.25;;;;;;;25.05;50.39;101797.66;5076333;28;20056;-53
2023/09/07 08:38:32;;;;;;;7.88;5.13;;;;;;;25.15;50.14;101794.91;5072169;28;20107;-59
2023/09/07 08:41:05;;;;;;;8.50;4.70;;;;;;;25.31;50.60;101792.34;5059139;28;20139;-59
2023/09/07 08:43:45;;;;;;;13.98;4.68;;;;;;;25.37;50.48;101786.28;5079336;28;20123;-61
2023/09/07 08:46:14;;;;;;;7.80;4.63;;;;;;;25.54;50.59;101794.50;5058525;28;20112;-61
2023/09/07 08:48:43;;;;;;;7.30;5.15;;;;;;;25.46;49.86;101792.59;5075529;28;20595;-60
2023/09/07 08:51:12;;;;;;;11.82;4.55;;;;;;;25.64;49.86;101792.50;5077244;28;20106;-60
2023/09/07 08:53:41;;;;;;;10.23;4.95;;;;;;;25.68;49.95;101786.63;5081160;28;20135;-59
2023/09/07 08:56:11;;;;;;;9.80;5.03;;;;;;;25.75;49.32;101787.66;5078464;28;20052;-61
2023/09/07 08:58:40;;;;;;;7.60;5.20;;;;;;;25.89;48.76;101788.09;5085511;28;20594;-61
2023/09/07 09:01:08;;;;;;;8.48;5.25;;;;;;;25.97;48.33;101786.28;5089890;28;20438;-61
2023/09/07 09:03:36;;;;;;;8.50;4.90;;;;;;;26.11;47.61;101786.66;5088447;28;20201;-61
2023/09/07 09:06:07;;;;;;;10.52;5.45;;;;;;;26.17;47.19;101784.16;5087805;28;20048;-60
2023/09/07 09:08:43;;;;;;;8.52;4.78;;;;;;;26.27;47.14;101786.72;5086333;28;20078;-62
2023/09/07 09:11:10;;;;;;;9.25;4.55;;;;;;;26.29;47.58;101787.38;5090930;28;20052;-61
2023/09/07 09:13:40;;;;;;;6.95;4.25;;;;;;;26.36;46.71;101783.03;5073121;28;20076;-61
2023/09/07 09:16:07;;;;;;;6.55;4.32;;;;;;;26.46;46.12;101791.00;5089235;28;20548;-62
2023/09/07 09:18:34;;;;;;;6.18;4.13;;;;;;;26.57;45.79;101782.59;5087199;28;20056;-63
2023/09/07 09:21:02;;;;;;;7.93;5.30;;;;;;;26.64;45.19;101774.66;5088548;28;20066;-63
2023/09/07 09:23:33;;;;;;;9.93;4.53;;;;;;;26.70;45.66;101779.38;5086868;28;20660;-62
2023/09/07 09:26:03;;;;;;;7.93;4.57;;;;;;;26.78;45.30;101782.09;5086624;28;20104;-61
2023/09/07 09:28:36;;;;;;;10.23;4.93;;;;;;;26.90;45.01;101774.50;5085773;28;20056;-62
2023/09/07 09:31:04;;;;;;;8.02;4.68;;;;;;;27.00;45.21;101776.00;5087122;28;20044;-62
2023/09/07 09:33:31;;;;;;;11.85;4.50;;;;;;;27.13;44.94;101780.91;5079209;28;20536;-61
2023/09/07 09:35:59;;;;;;;8.30;4.45;;;;;;;27.18;44.37;101773.13;5075997;28;20071;-63
2023/09/07 09:38:26;;;;;;;12.55;4.53;;;;;;;27.31;43.57;101775.31;5084188;28;20156;-62
2023/09/07 09:40:54;;;;;;;8.88;4.75;;;;;;;27.39;43.49;101767.19;5084033;28;20575;-61
2023/09/07 09:43:22;;;;;;;6.72;4.40;;;;;;;27.47;43.28;101766.34;5077173;28;20052;-60
2023/09/07 09:45:50;;;;;;;6.18;4.85;;;;;;;27.48;43.31;101768.00;5032165;28;20105;-63
2023/09/07 09:48:22;;;;;;;6.38;4.32;;;;;;;27.48;42.46;101766.16;5048967;28;20138;-61
2023/09/07 09:50:50;;;;;;;9.15;4.80;;;;;;;27.46;41.90;101762.75;5085944;28;20051;-61
2023/09/07 09:53:20;;;;;;;14.23;4.68;;;;;;;27.63;41.38;101760.00;5084414;28;20076;-63
2023/09/07 09:55:48;;;;;;;9.02;4.68;;;;;;;27.69;41.19;101756.59;5086241;28;20131;-62
2023/09/07 09:58:16;;;;;;;4.15;3.78;;;;;;;27.77;41.09;101754.72;5087592;28;20097;-63
2023/09/07 10:01:00;;;;;;;6.13;4.20;;;;;;;27.88;41.13;101755.38;5087029;28;20077;-62
2023/09/07 10:03:46;;;;;;;5.75;3.88;;;;;;;27.96;41.14;101752.59;5069742;28;20139;-63
2023/09/07 10:06:29;;;;;;;8.35;5.15;;;;;;;28.03;40.26;101756.31;5086102;28;20048;-63
2023/09/07 10:09:01;;;;;;;8.95;4.45;;;;;;;27.97;38.94;101757.88;5083401;28;20506;-63
2023/09/07 10:11:38;;;;;;;6.40;4.20;;;;;;;28.01;38.81;101751.09;5051526;28;20599;-63
2023/09/07 10:14:06;;;;;;;8.18;4.00;;;;;;;28.05;37.93;101754.25;5086850;28;20044;-62
2023/09/07 10:16:49;;;;;;;6.68;4.00;;;;;;;27.91;37.84;101747.72;5085233;28;20052;-62
2023/09/07 10:19:21;;;;;;;11.93;3.85;;;;;;;27.99;37.05;101750.41;5085960;28;20524;-62
2023/09/07 10:21:49;;;;;;;4.95;3.60;;;;;;;28.10;36.24;101757.28;5084410;28;20152;-62
2023/09/07 10:24:30;;;;;;;7.88;3.55;;;;;;;28.22;37.77;101758.56;5068897;28;20494;-62
2023/09/07 10:26:57;;;;;;;4.60;3.55;;;;;;;28.26;36.53;101746.34;5082113;28;20461;-63
2023/09/07 10:29:25;;;;;;;8.20;3.90;;;;;;;28.37;36.43;101752.38;5085656;28;20540;-62
2023/09/07 10:31:52;;;;;;;7.45;4.18;;;;;;;28.44;36.10;101748.78;5077193;28;20044;-62
2023/09/07 10:34:22;;;;;;;6.93;3.63;;;;;;;28.56;36.66;101749.22;5087436;28;20573;-62
2023/09/07 10:36:56;;;;;;;4.78;3.78;;;;;;;28.77;37.15;101753.94;5084186;28;20086;-67
2023/09/07 10:39:23;;;;;;;9.20;3.67;;;;;;;28.88;36.68;101749.97;5086614;28;20522;-62
2023/09/07 10:41:50;;;;;;;6.70;3.70;;;;;;;28.91;34.86;101752.28;5081662;28;20155;-65
2023/09/07 10:44:25;;;;;;;5.15;3.47;;;;;;;28.83;34.98;101752.38;5086469;28;20086;-62
2023/09/07 10:46:53;;;;;;;7.47;3.78;;;;;;;28.84;34.32;101737.81;5087287;28;20131;-61
2023/09/07 10:49:20;;;;;;;4.38;3.08;;;;;;;28.87;34.75;101749.13;5084753;28;20147;-62
2023/09/07 10:51:48;;;;;;;4.88;3.85;;;;;;;28.94;34.85;101749.22;5087467;28;20475;-62
2023/09/07 10:54:23;;;;;;;15.45;4.85;;;;;;;29.16;34.67;101748.34;5068719;28;20121;-61
2023/09/07 10:56:50;;;;;;;11.50;4.68;;;;;;;29.08;33.82;101750.31;5084135;28;20075;-62
2023/09/07 10:59:18;;;;;;;8.70;3.85;;;;;;;29.24;34.38;101751.00;5079903;28;20084;-63
2023/09/07 11:01:45;;;;;;;8.85;3.65;;;;;;;29.38;33.67;101749.31;5083025;28;20495;-61
2023/09/07 11:04:13;;;;;;;4.15;3.40;;;;;;;29.53;34.34;101741.16;5079843;28;20067;-61
2023/09/07 11:06:41;;;;;;;6.45;3.50;;;;;;;29.76;34.31;101738.34;5080848;28;20075;-62
2023/09/07 11:09:10;;;;;;;5.65;3.97;;;;;;;29.93;34.00;101736.25;5066504;28;20075;-63
2023/09/07 11:11:38;;;;;;;4.40;3.53;;;;;;;30.09;33.68;101727.06;5086332;28;20071;-62
2023/09/07 11:14:06;;;;;;;7.40;3.78;;;;;;;30.16;34.61;101726.09;5062044;28;20374;-63
2023/09/07 11:16:34;;;;;;;6.85;4.22;;;;;;;30.24;35.01;101723.28;5084921;28;20700;-63
2023/09/07 11:19:05;;;;;;;6.60;3.70;;;;;;;30.34;34.38;101722.94;5083905;28;20080;-63
2023/09/07 11:21:34;;;;;;;8.60;3.40;;;;;;;30.41;33.58;101721.16;5066862;28;20066;-63
2023/09/07 11:24:04;;;;;;;4.72;3.70;;;;;;;30.58;34.23;101712.75;5085190;28;20148;-63
2023/09/07 11:26:46;;;;;;;8.38;4.03;;;;;;;30.55;32.53;101718.56;5063548;28;20615;-63
2023/09/07 11:29:16;;;;;;;4.10;3.65;;;;;;;30.61;33.66;101710.44;5065513;28;20048;-63